sensor_id;sensor_type;location;lat;lon;timestamp;pressure;altitude;pressure_sealevel;temperature;humidity
56052;BME280;41919;42.648;23.384;2023-02-12T00:00:31;95451.13;;;0.81;41.28
56052;BME280;41919;42.648;23.384;2023-02-12T00:02:57;95497.47;;;1.13;41.42
56052;BME280;41919;42.648;23.384;2023-02-12T00:05:22;95437.78;;;0.76;42.02
56052;BME280;41919;42.648;23.384;2023-02-12T00:07:48;95427.50;;;0.76;41.98
56052;BME280;41919;42.648;23.384;2023-02-12T00:10:13;95503.50;;;1.24;41.92
56052;BME280;41919;42.648;23.384;2023-02-12T00:12:39;95439.56;;;0.75;42.16
56052;BME280;41919;42.648;23.384;2023-02-12T00:15:04;95446.91;;;0.69;41.62
56052;BME280;41919;42.648;23.384;2023-02-12T00:17:30;95425.88;;;0.75;41.30
56052;BME280;41919;42.648;23.384;2023-02-12T00:19:55;95513.31;;;1.30;41.60
56052;BME280;41919;42.648;23.384;2023-02-12T00:22:21;95373.94;;;0.37;41.81
56052;BME280;41919;42.648;23.384;2023-02-12T00:24:46;95520.34;;;1.28;41.55
56052;BME280;41919;42.648;23.384;2023-02-12T00:27:11;95488.06;;;1.24;41.59
56052;BME280;41919;42.648;23.384;2023-02-12T00:29:37;95424.34;;;0.72;41.30
56052;BME280;41919;42.648;23.384;2023-02-12T00:32:02;95490.28;;;0.96;41.25
56052;BME280;41919;42.648;23.384;2023-02-12T00:34:28;95518.72;;;1.27;41.46
56052;BME280;41919;42.648;23.384;2023-02-12T00:36:53;95499.53;;;1.20;41.32
56052;BME280;41919;42.648;23.384;2023-02-12T00:39:19;95504.50;;;1.11;41.51
56052;BME280;41919;42.648;23.384;2023-02-12T00:41:44;95464.75;;;0.93;41.42
56052;BME280;41919;42.648;23.384;2023-02-12T00:44:09;95490.94;;;1.30;41.08
56052;BME280;41919;42.648;23.384;2023-02-12T00:46:35;95489.06;;;1.11;41.44
56052;BME280;41919;42.648;23.384;2023-02-12T00:49:00;95493.00;;;1.15;41.33
56052;BME280;41919;42.648;23.384;2023-02-12T00:51:26;95426.91;;;0.72;41.31
56052;BME280;41919;42.648;23.384;2023-02-12T00:53:51;95488.09;;;1.12;41.28
56052;BME280;41919;42.648;23.384;2023-02-12T00:56:17;95424.81;;;0.77;41.59
56052;BME280;41919;42.648;23.384;2023-02-12T00:58:42;95466.19;;;1.18;41.50
56052;BME280;41919;42.648;23.384;2023-02-12T01:01:08;95408.88;;;0.84;41.21
56052;BME280;41919;42.648;23.384;2023-02-12T01:03:33;95413.66;;;0.88;41.28
56052;BME280;41919;42.648;23.384;2023-02-12T01:05:59;95463.94;;;1.25;41.44
56052;BME280;41919;42.648;23.384;2023-02-12T01:08:24;95449.59;;;1.11;41.28
56052;BME280;41919;42.648;23.384;2023-02-12T01:10:58;95476.56;;;1.28;40.94
56052;BME280;41919;42.648;23.384;2023-02-12T01:13:24;95475.72;;;1.39;40.97
56052;BME280;41919;42.648;23.384;2023-02-12T01:18:28;95475.25;;;1.33;41.10
56052;BME280;41919;42.648;23.384;2023-02-12T01:20:54;95494.09;;;1.34;41.15
56052;BME280;41919;42.648;23.384;2023-02-12T01:23:19;95421.84;;;0.82;41.08
56052;BME280;41919;42.648;23.384;2023-02-12T01:25:44;95495.16;;;1.31;41.07
56052;BME280;41919;42.648;23.384;2023-02-12T01:28:10;95490.94;;;1.30;41.25
56052;BME280;41919;42.648;23.384;2023-02-12T01:30:35;95503.91;;;1.40;41.08
56052;BME280;41919;42.648;23.384;2023-02-12T01:33:01;95497.50;;;1.34;41.25
56052;BME280;41919;42.648;23.384;2023-02-12T01:35:26;95427.91;;;0.92;40.69
56052;BME280;41919;42.648;23.384;2023-02-12T01:37:51;95429.56;;;1.14;41.15
56052;BME280;41919;42.648;23.384;2023-02-12T01:40:17;95472.44;;;1.36;41.66
56052;BME280;41919;42.648;23.384;2023-02-12T01:42:43;95401.28;;;1.03;41.27
56052;BME280;41919;42.648;23.384;2023-02-12T01:47:38;95399.59;;;0.92;41.72
56052;BME280;41919;42.648;23.384;2023-02-12T01:50:05;95386.16;;;0.89;42.00
56052;BME280;41919;42.648;23.384;2023-02-12T01:52:33;95335.22;;;0.50;42.11
56052;BME280;41919;42.648;23.384;2023-02-12T01:55:03;95459.63;;;1.46;41.87
56052;BME280;41919;42.648;23.384;2023-02-12T01:57:31;95426.38;;;1.43;41.91
56052;BME280;41919;42.648;23.384;2023-02-12T01:59:59;95424.19;;;1.39;41.87
56052;BME280;41919;42.648;23.384;2023-02-12T02:02:26;95422.75;;;1.25;41.97
56052;BME280;41919;42.648;23.384;2023-02-12T02:04:55;95385.78;;;1.14;41.94
56052;BME280;41919;42.648;23.384;2023-02-12T02:07:21;95421.09;;;1.45;41.88
56052;BME280;41919;42.648;23.384;2023-02-12T02:09:47;95404.28;;;1.20;41.91
56052;BME280;41919;42.648;23.384;2023-02-12T02:12:12;95439.94;;;1.45;42.12
56052;BME280;41919;42.648;23.384;2023-02-12T02:14:58;95376.81;;;0.88;42.20
56052;BME280;41919;42.648;23.384;2023-02-12T02:33:26;95451.66;;;0.96;44.28
56052;BME280;41919;42.648;23.384;2023-02-12T02:38:51;95434.38;;;0.87;44.33
56052;BME280;41919;42.648;23.384;2023-02-12T02:43:50;95430.84;;;0.88;44.64
56052;BME280;41919;42.648;23.384;2023-02-12T02:49:26;95457.41;;;0.88;44.91
56052;BME280;41919;42.648;23.384;2023-02-12T02:52:04;95394.38;;;0.50;44.94
56052;BME280;41919;42.648;23.384;2023-02-12T02:54:47;95360.59;;;0.44;44.42
56052;BME280;41919;42.648;23.384;2023-02-12T02:57:17;95460.66;;;1.23;44.29
56052;BME280;41919;42.648;23.384;2023-02-12T02:59:51;95466.16;;;0.97;44.90
56052;BME280;41919;42.648;23.384;2023-02-12T03:02:26;95448.88;;;0.76;45.01
56052;BME280;41919;42.648;23.384;2023-02-12T03:04:53;95473.25;;;1.05;45.07
56052;BME280;41919;42.648;23.384;2023-02-12T03:07:31;95464.75;;;0.93;45.51
56052;BME280;41919;42.648;23.384;2023-02-12T03:10:26;95452.59;;;0.95;45.23
56052;BME280;41919;42.648;23.384;2023-02-12T03:13:20;95379.03;;;0.60;45.17
56052;BME280;41919;42.648;23.384;2023-02-12T03:15:50;95468.34;;;1.34;44.79
56052;BME280;41919;42.648;23.384;2023-02-12T03:18:27;95393.69;;;0.81;44.70
56052;BME280;41919;42.648;23.384;2023-02-12T03:21:00;95394.13;;;0.86;44.73
56052;BME280;41919;42.648;23.384;2023-02-12T03:23:43;95436.34;;;0.94;45.16
56052;BME280;41919;42.648;23.384;2023-02-12T03:26:14;95380.03;;;0.69;45.14
56052;BME280;41919;42.648;23.384;2023-02-12T03:28:42;95431.94;;;1.06;45.20
56052;BME280;41919;42.648;23.384;2023-02-12T03:39:34;95456.59;;;1.41;45.26
56052;BME280;41919;42.648;23.384;2023-02-12T03:42:15;95377.88;;;1.06;45.13
56052;BME280;41919;42.648;23.384;2023-02-12T03:50:29;95394.59;;;1.33;44.62
56052;BME280;41919;42.648;23.384;2023-02-12T03:52:57;95453.72;;;1.76;44.79
56052;BME280;41919;42.648;23.384;2023-02-12T03:55:22;95431.84;;;1.50;45.02
56052;BME280;41919;42.648;23.384;2023-02-12T03:57:53;95412.38;;;1.36;45.52
56052;BME280;41919;42.648;23.384;2023-02-12T04:00:22;95450.94;;;1.47;45.56
56052;BME280;41919;42.648;23.384;2023-02-12T04:02:49;95440.84;;;1.55;45.36
56052;BME280;41919;42.648;23.384;2023-02-12T04:05:24;95434.28;;;1.30;46.08
56052;BME280;41919;42.648;23.384;2023-02-12T04:07:51;95365.94;;;0.84;46.06
56052;BME280;41919;42.648;23.384;2023-02-12T04:10:17;95375.06;;;0.88;46.26
56052;BME280;41919;42.648;23.384;2023-02-12T04:12:59;95437.47;;;1.23;46.13
56052;BME280;41919;42.648;23.384;2023-02-12T04:18:14;95417.75;;;0.91;47.01
56052;BME280;41919;42.648;23.384;2023-02-12T04:20:56;95384.13;;;0.71;47.02
56052;BME280;41919;42.648;23.384;2023-02-12T04:34:16;95450.31;;;0.81;47.49
56052;BME280;41919;42.648;23.384;2023-02-12T04:39:49;95398.06;;;0.57;47.55
56052;BME280;41919;42.648;23.384;2023-02-12T04:42:15;95387.22;;;0.54;47.45
56052;BME280;41919;42.648;23.384;2023-02-12T04:44:42;95383.91;;;0.63;47.46
56052;BME280;41919;42.648;23.384;2023-02-12T04:47:15;95380.44;;;0.53;47.22
56052;BME280;41919;42.648;23.384;2023-02-12T04:49:41;95482.97;;;1.01;47.74
56052;BME280;41919;42.648;23.384;2023-02-12T04:52:07;95480.41;;;1.01;48.02
56052;BME280;41919;42.648;23.384;2023-02-12T04:54:33;95403.56;;;0.64;47.67
56052;BME280;41919;42.648;23.384;2023-02-12T04:56:59;95370.88;;;0.44;47.48
56052;BME280;41919;42.648;23.384;2023-02-12T04:59:24;95479.75;;;1.20;47.45
56052;BME280;41919;42.648;23.384;2023-02-12T05:01:50;95477.28;;;1.18;47.67
56052;BME280;41919;42.648;23.384;2023-02-12T05:04:16;95403.50;;;0.87;47.64
56052;BME280;41919;42.648;23.384;2023-02-12T05:06:43;95467.00;;;1.18;47.96
56052;BME280;41919;42.648;23.384;2023-02-12T05:09:13;95475.25;;;1.33;47.71
56052;BME280;41919;42.648;23.384;2023-02-12T05:11:38;95391.31;;;0.89;47.69
56052;BME280;41919;42.648;23.384;2023-02-12T05:14:04;95466.22;;;1.39;47.65
56052;BME280;41919;42.648;23.384;2023-02-12T05:16:29;95479.78;;;1.41;47.63
56052;BME280;41919;42.648;23.384;2023-02-12T05:18:55;95472.25;;;1.49;47.47
56052;BME280;41919;42.648;23.384;2023-02-12T05:21:21;95463.81;;;1.47;47.28
56052;BME280;41919;42.648;23.384;2023-02-12T05:23:46;95419.22;;;1.26;46.80
56052;BME280;41919;42.648;23.384;2023-02-12T05:26:14;95432.16;;;1.14;46.84
56052;BME280;41919;42.648;23.384;2023-02-12T05:28:39;95498.00;;;1.49;47.26
56052;BME280;41919;42.648;23.384;2023-02-12T05:31:06;95420.69;;;1.07;47.99
56052;BME280;41919;42.648;23.384;2023-02-12T05:33:33;95458.69;;;1.15;49.48
56052;BME280;41919;42.648;23.384;2023-02-12T05:36:05;95507.53;;;1.37;50.25
56052;BME280;41919;42.648;23.384;2023-02-12T05:38:33;95511.88;;;1.37;50.40
56052;BME280;41919;42.648;23.384;2023-02-12T05:41:36;95437.44;;;0.81;50.70
56052;BME280;41919;42.648;23.384;2023-02-12T05:43:59;95450.38;;;0.90;50.69
56052;BME280;41919;42.648;23.384;2023-02-12T05:46:25;95516.22;;;1.36;51.21
56052;BME280;41919;42.648;23.384;2023-02-12T05:48:50;95471.03;;;1.11;51.23
56052;BME280;41919;42.648;23.384;2023-02-12T05:51:18;95516.69;;;1.30;50.93
56052;BME280;41919;42.648;23.384;2023-02-12T05:53:46;95525.91;;;1.44;50.86
56052;BME280;41919;42.648;23.384;2023-02-12T05:56:18;95530.91;;;1.46;51.33
56052;BME280;41919;42.648;23.384;2023-02-12T05:58:47;95455.38;;;0.92;51.50
56052;BME280;41919;42.648;23.384;2023-02-12T06:01:28;95491.91;;;1.29;52.01
56052;BME280;41919;42.648;23.384;2023-02-12T06:03:54;95517.53;;;1.31;53.00
56052;BME280;41919;42.648;23.384;2023-02-12T06:06:20;95531.88;;;1.45;53.27
56052;BME280;41919;42.648;23.384;2023-02-12T06:08:49;95539.13;;;1.40;53.61
56052;BME280;41919;42.648;23.384;2023-02-12T06:11:15;95461.13;;;0.95;53.73
56052;BME280;41919;42.648;23.384;2023-02-12T06:13:41;95537.81;;;1.45;53.81
56052;BME280;41919;42.648;23.384;2023-02-12T06:16:16;95536.22;;;1.44;54.26
56052;BME280;41919;42.648;23.384;2023-02-12T06:18:42;95531.19;;;1.43;54.49
56052;BME280;41919;42.648;23.384;2023-02-12T06:21:07;95475.72;;;1.06;54.66
56052;BME280;41919;42.648;23.384;2023-02-12T06:23:33;95546.72;;;1.52;55.40
56052;BME280;41919;42.648;23.384;2023-02-12T06:26:00;95531.91;;;1.33;56.18
56052;BME280;41919;42.648;23.384;2023-02-12T06:28:25;95522.69;;;1.31;56.64
56052;BME280;41919;42.648;23.384;2023-02-12T06:30:51;95546.94;;;1.49;57.28
56052;BME280;41919;42.648;23.384;2023-02-12T06:33:16;95465.84;;;0.90;58.23
56052;BME280;41919;42.648;23.384;2023-02-12T06:35:41;95553.47;;;1.32;59.03
56052;BME280;41919;42.648;23.384;2023-02-12T06:38:07;95520.94;;;1.20;59.99
56052;BME280;41919;42.648;23.384;2023-02-12T06:40:33;95544.56;;;1.36;60.51
56052;BME280;41919;42.648;23.384;2023-02-12T06:42:59;95553.81;;;1.28;61.66
56052;BME280;41919;42.648;23.384;2023-02-12T06:45:24;95551.00;;;1.31;62.07
56052;BME280;41919;42.648;23.384;2023-02-12T06:47:50;95547.59;;;1.30;62.79
56052;BME280;41919;42.648;23.384;2023-02-12T06:50:16;95476.59;;;0.84;63.56
56052;BME280;41919;42.648;23.384;2023-02-12T06:52:41;95502.16;;;1.08;63.76
56052;BME280;41919;42.648;23.384;2023-02-12T06:55:07;95470.13;;;0.90;63.92
56052;BME280;41919;42.648;23.384;2023-02-12T06:57:32;95476.97;;;0.80;64.62
56052;BME280;41919;42.648;23.384;2023-02-12T06:59:58;95485.59;;;0.90;64.60
56052;BME280;41919;42.648;23.384;2023-02-12T07:02:23;95490.63;;;0.80;64.92
56052;BME280;41919;42.648;23.384;2023-02-12T07:04:49;95547.97;;;1.26;64.80
56052;BME280;41919;42.648;23.384;2023-02-12T07:07:14;95502.56;;;0.92;65.17
56052;BME280;41919;42.648;23.384;2023-02-12T07:09:39;95549.47;;;1.28;65.02
56052;BME280;41919;42.648;23.384;2023-02-12T07:12:05;95480.56;;;0.88;64.76
56052;BME280;41919;42.648;23.384;2023-02-12T07:14:31;95559.00;;;1.16;65.47
56052;BME280;41919;42.648;23.384;2023-02-12T07:16:56;95468.66;;;0.76;65.08
56052;BME280;41919;42.648;23.384;2023-02-12T07:19:22;95552.13;;;1.38;65.00
56052;BME280;41919;42.648;23.384;2023-02-12T07:21:48;95562.69;;;1.35;64.73
56052;BME280;41919;42.648;23.384;2023-02-12T07:24:14;95480.91;;;0.95;64.33
56052;BME280;41919;42.648;23.384;2023-02-12T07:26:40;95541.03;;;1.37;64.51
56052;BME280;41919;42.648;23.384;2023-02-12T07:29:06;95562.00;;;1.33;65.12
56052;BME280;41919;42.648;23.384;2023-02-12T07:31:32;95484.41;;;0.94;64.71
56052;BME280;41919;42.648;23.384;2023-02-12T07:33:59;95484.19;;;0.86;65.01
56052;BME280;41919;42.648;23.384;2023-02-12T07:36:27;95562.22;;;1.41;64.74
56052;BME280;41919;42.648;23.384;2023-02-12T07:38:53;95554.09;;;1.46;64.67
56052;BME280;41919;42.648;23.384;2023-02-12T07:41:20;95572.09;;;1.57;64.53
56052;BME280;41919;42.648;23.384;2023-02-12T07:43:48;95502.28;;;1.07;64.71
56052;BME280;41919;42.648;23.384;2023-02-12T07:46:16;95496.06;;;1.09;70.81
56052;BME280;41919;42.648;23.384;2023-02-12T07:48:43;95582.47;;;1.67;72.93
56052;BME280;41919;42.648;23.384;2023-02-12T07:51:11;95581.50;;;1.79;70.54
56052;BME280;41919;42.648;23.384;2023-02-12T07:53:37;95577.03;;;1.81;68.95
56052;BME280;41919;42.648;23.384;2023-02-12T07:56:10;95581.00;;;1.85;65.58
56052;BME280;41919;42.648;23.384;2023-02-12T07:58:37;95560.25;;;1.66;64.83
56052;BME280;41919;42.648;23.384;2023-02-12T08:01:24;95574.47;;;1.81;65.60
56052;BME280;41919;42.648;23.384;2023-02-12T08:03:54;95570.78;;;1.63;65.90
56052;BME280;41919;42.648;23.384;2023-02-12T08:06:24;95574.56;;;1.59;66.06
56052;BME280;41919;42.648;23.384;2023-02-12T08:08:54;95579.47;;;1.62;66.00
56052;BME280;41919;42.648;23.384;2023-02-12T08:11:20;95592.63;;;1.47;66.34
56052;BME280;41919;42.648;23.384;2023-02-12T08:13:46;95588.38;;;1.58;66.51
56052;BME280;41919;42.648;23.384;2023-02-12T08:16:14;95592.09;;;1.65;66.29
56052;BME280;41919;42.648;23.384;2023-02-12T08:18:40;95583.44;;;1.66;66.42
56052;BME280;41919;42.648;23.384;2023-02-12T08:21:14;95585.88;;;1.67;66.32
56052;BME280;41919;42.648;23.384;2023-02-12T08:23:41;95590.81;;;1.59;66.66
56052;BME280;41919;42.648;23.384;2023-02-12T08:26:16;95588.25;;;1.59;66.49
56052;BME280;41919;42.648;23.384;2023-02-12T08:28:51;95591.84;;;1.68;66.17
56052;BME280;41919;42.648;23.384;2023-02-12T08:31:23;95544.09;;;1.31;66.17
56052;BME280;41919;42.648;23.384;2023-02-12T08:33:51;95577.50;;;1.54;66.42
56052;BME280;41919;42.648;23.384;2023-02-12T08:36:20;95551.78;;;1.43;66.21
56052;BME280;41919;42.648;23.384;2023-02-12T08:38:46;95613.56;;;1.86;65.17
56052;BME280;41919;42.648;23.384;2023-02-12T08:41:20;95521.53;;;1.24;65.69
56052;BME280;41919;42.648;23.384;2023-02-12T08:43:46;95619.63;;;1.64;66.71
56052;BME280;41919;42.648;23.384;2023-02-12T08:46:15;95592.31;;;1.73;79.31
56052;BME280;41919;42.648;23.384;2023-02-12T08:48:42;95577.22;;;2.31;86.78
56052;BME280;41919;42.648;23.384;2023-02-12T08:51:13;95545.63;;;2.80;77.51
56052;BME280;41919;42.648;23.384;2023-02-12T08:53:40;95553.84;;;3.04;62.77
56052;BME280;41919;42.648;23.384;2023-02-12T08:56:07;95560.25;;;3.10;60.55
56052;BME280;41919;42.648;23.384;2023-02-12T08:58:34;95586.38;;;3.17;60.04
56052;BME280;41919;42.648;23.384;2023-02-12T09:01:00;95574.38;;;2.96;60.19
56052;BME280;41919;42.648;23.384;2023-02-12T09:03:25;95632.88;;;3.17;60.49
56052;BME280;41919;42.648;23.384;2023-02-12T09:05:51;95641.63;;;2.94;61.15
56052;BME280;41919;42.648;23.384;2023-02-12T09:08:17;95632.38;;;2.61;62.17
56052;BME280;41919;42.648;23.384;2023-02-12T09:10:43;95641.81;;;2.51;62.94
56052;BME280;41919;42.648;23.384;2023-02-12T09:13:09;95566.78;;;2.12;63.01
56052;BME280;41919;42.648;23.384;2023-02-12T09:15:39;95643.91;;;2.57;63.28
56052;BME280;41919;42.648;23.384;2023-02-12T09:18:06;95643.53;;;2.41;63.88
56052;BME280;41919;42.648;23.384;2023-02-12T09:20:32;95655.63;;;2.40;64.21
56052;BME280;41919;42.648;23.384;2023-02-12T09:22:58;95615.84;;;2.01;65.09
56052;BME280;41919;42.648;23.384;2023-02-12T09:25:24;95615.59;;;2.04;65.66
56052;BME280;41919;42.648;23.384;2023-02-12T09:27:50;95665.72;;;2.32;65.40
56052;BME280;41919;42.648;23.384;2023-02-12T09:30:16;95659.88;;;2.09;66.27
56052;BME280;41919;42.648;23.384;2023-02-12T09:32:41;95660.50;;;2.22;66.41
56052;BME280;41919;42.648;23.384;2023-02-12T09:35:07;95643.50;;;1.99;66.87
56052;BME280;41919;42.648;23.384;2023-02-12T09:37:33;95638.19;;;2.11;66.67
56052;BME280;41919;42.648;23.384;2023-02-12T09:39:58;95647.19;;;2.17;66.38
56052;BME280;41919;42.648;23.384;2023-02-12T09:45:20;95664.53;;;2.15;66.72
56052;BME280;41919;42.648;23.384;2023-02-12T09:50:36;95666.13;;;2.27;65.82
56052;BME280;41919;42.648;23.384;2023-02-12T09:53:03;95659.69;;;2.22;66.14
56052;BME280;41919;42.648;23.384;2023-02-12T09:55:31;95604.78;;;1.89;66.19
56052;BME280;41919;42.648;23.384;2023-02-12T09:58:01;95666.50;;;2.44;65.55
56052;BME280;41919;42.648;23.384;2023-02-12T10:00:30;95657.44;;;2.49;65.28
56052;BME280;41919;42.648;23.384;2023-02-12T10:03:00;95669.44;;;2.60;64.54
56052;BME280;41919;42.648;23.384;2023-02-12T10:05:31;95586.91;;;2.18;66.20
56052;BME280;41919;42.648;23.384;2023-02-12T10:16:59;95666.94;;;3.41;61.94
56052;BME280;41919;42.648;23.384;2023-02-12T10:25:02;95666.06;;;3.81;59.76
56052;BME280;41919;42.648;23.384;2023-02-12T10:27:42;95668.94;;;3.78;59.67
56052;BME280;41919;42.648;23.384;2023-02-12T10:30:39;95676.41;;;3.81;59.92
56052;BME280;41919;42.648;23.384;2023-02-12T10:33:13;95673.53;;;3.65;60.09
56052;BME280;41919;42.648;23.384;2023-02-12T10:35:47;95675.94;;;3.57;60.41
56052;BME280;41919;42.648;23.384;2023-02-12T10:38:18;95593.28;;;3.06;60.49
56052;BME280;41919;42.648;23.384;2023-02-12T10:40:45;95676.13;;;3.65;60.49
56052;BME280;41919;42.648;23.384;2023-02-12T10:43:13;95671.19;;;3.62;60.51
56052;BME280;41919;42.648;23.384;2023-02-12T10:45:40;95602.81;;;3.16;60.27
56052;BME280;41919;42.648;23.384;2023-02-12T10:50:36;95679.38;;;3.67;60.39
56052;BME280;41919;42.648;23.384;2023-02-12T10:53:03;95682.66;;;3.69;60.35
56052;BME280;41919;42.648;23.384;2023-02-12T10:55:31;95674.34;;;3.75;60.06
56052;BME280;41919;42.648;23.384;2023-02-12T10:57:58;95670.41;;;3.71;59.77
56052;BME280;41919;42.648;23.384;2023-02-12T11:00:35;95623.03;;;3.51;59.79
56052;BME280;41919;42.648;23.384;2023-02-12T11:03:21;95665.38;;;3.79;59.80
56052;BME280;41919;42.648;23.384;2023-02-12T11:05:47;95616.09;;;3.51;59.92
56052;BME280;41919;42.648;23.384;2023-02-12T11:08:36;95674.78;;;3.80;60.13
56052;BME280;41919;42.648;23.384;2023-02-12T11:11:27;95673.66;;;3.73;60.72
56052;BME280;41919;42.648;23.384;2023-02-12T11:14:19;95678.06;;;4.02;60.20
56052;BME280;41919;42.648;23.384;2023-02-12T11:16:56;95659.56;;;4.16;59.45
56052;BME280;41919;42.648;23.384;2023-02-12T11:19:29;95674.78;;;4.39;58.78
56052;BME280;41919;42.648;23.384;2023-02-12T11:22:12;95595.28;;;4.02;58.10
56052;BME280;41919;42.648;23.384;2023-02-12T11:24:44;95675.59;;;4.49;58.15
56052;BME280;41919;42.648;23.384;2023-02-12T11:27:23;95672.59;;;4.34;58.52
56052;BME280;41919;42.648;23.384;2023-02-12T11:30:20;95668.78;;;4.48;58.32
56052;BME280;41919;42.648;23.384;2023-02-12T11:32:46;95672.44;;;4.55;58.29
56052;BME280;41919;42.648;23.384;2023-02-12T11:35:24;95615.41;;;4.18;58.06
56052;BME280;41919;42.648;23.384;2023-02-12T11:37:56;95657.84;;;4.54;58.39
56052;BME280;41919;42.648;23.384;2023-02-12T11:40:26;95665.72;;;4.82;57.67
56052;BME280;41919;42.648;23.384;2023-02-12T11:42:55;95654.94;;;4.77;57.05
56052;BME280;41919;42.648;23.384;2023-02-12T11:45:28;95668.00;;;4.85;57.44
56052;BME280;41919;42.648;23.384;2023-02-12T11:47:54;95649.19;;;4.83;56.99
56052;BME280;41919;42.648;23.384;2023-02-12T11:50:31;95628.06;;;4.40;57.82
56052;BME280;41919;42.648;23.384;2023-02-12T11:53:08;95615.53;;;4.36;58.10
56052;BME280;41919;42.648;23.384;2023-02-12T11:55:36;95622.59;;;4.53;57.56
56052;BME280;41919;42.648;23.384;2023-02-12T11:58:13;95612.94;;;4.45;57.79
56052;BME280;41919;42.648;23.384;2023-02-12T12:06:11;95645.59;;;4.56;56.99
56052;BME280;41919;42.648;23.384;2023-02-12T12:11:17;95598.63;;;4.41;56.73
56052;BME280;41919;42.648;23.384;2023-02-12T12:17:19;95676.28;;;4.98;56.53
56052;BME280;41919;42.648;23.384;2023-02-12T12:20:10;95681.44;;;5.08;56.52
56052;BME280;41919;42.648;23.384;2023-02-12T12:22:39;95678.38;;;5.22;56.04
56052;BME280;41919;42.648;23.384;2023-02-12T12:30:54;95679.41;;;5.39;54.78
56052;BME280;41919;42.648;23.384;2023-02-12T12:41:23;95658.00;;;5.37;53.95
56052;BME280;41919;42.648;23.384;2023-02-12T13:05:55;95704.94;;;4.97;55.88
56052;BME280;41919;42.648;23.384;2023-02-12T13:14:06;95718.50;;;4.61;56.69
56052;BME280;41919;42.648;23.384;2023-02-12T13:16:41;95688.41;;;4.60;56.79
56052;BME280;41919;42.648;23.384;2023-02-12T13:22:16;95716.28;;;4.76;56.80
56052;BME280;41919;42.648;23.384;2023-02-12T13:27:24;95712.38;;;4.53;57.90
56052;BME280;41919;42.648;23.384;2023-02-12T13:29:53;95725.47;;;4.51;57.98
56052;BME280;41919;42.648;23.384;2023-02-12T13:32:35;95659.13;;;4.11;58.14
56052;BME280;41919;42.648;23.384;2023-02-12T13:35:04;95715.91;;;4.51;58.22
56052;BME280;41919;42.648;23.384;2023-02-12T13:37:45;95725.31;;;4.62;57.90
56052;BME280;41919;42.648;23.384;2023-02-12T13:40:16;95700.63;;;4.58;57.45
56052;BME280;41919;42.648;23.384;2023-02-12T13:58:50;95716.75;;;4.23;58.96
56052;BME280;41919;42.648;23.384;2023-02-12T14:01:36;95744.78;;;4.27;59.23
56052;BME280;41919;42.648;23.384;2023-02-12T14:04:15;95734.97;;;4.31;59.19
56052;BME280;41919;42.648;23.384;2023-02-12T14:06:57;95742.63;;;4.32;59.35
56052;BME280;41919;42.648;23.384;2023-02-12T14:09:28;95687.44;;;3.93;59.57
56052;BME280;41919;42.648;23.384;2023-02-12T14:11:56;95751.75;;;4.37;59.72
56052;BME280;41919;42.648;23.384;2023-02-12T14:14:33;95680.78;;;4.10;58.84
56052;BME280;41919;42.648;23.384;2023-02-12T14:20:25;95764.16;;;4.53;59.03
56052;BME280;41919;42.648;23.384;2023-02-12T14:30:35;95772.59;;;4.74;58.14
56052;BME280;41919;42.648;23.384;2023-02-12T14:33:18;95765.78;;;4.63;58.05
56052;BME280;41919;42.648;23.384;2023-02-12T14:35:46;95697.94;;;4.11;58.35
56052;BME280;41919;42.648;23.384;2023-02-12T14:43:36;95787.59;;;4.70;58.47
56052;BME280;41919;42.648;23.384;2023-02-12T14:49:01;95802.03;;;4.73;57.98
56052;BME280;41919;42.648;23.384;2023-02-12T14:51:50;95725.44;;;4.12;58.57
56052;BME280;41919;42.648;23.384;2023-02-12T14:56:48;95810.22;;;4.59;58.66
56052;BME280;41919;42.648;23.384;2023-02-12T14:59:19;95740.94;;;4.12;58.85
56052;BME280;41919;42.648;23.384;2023-02-12T15:01:48;95810.34;;;4.57;58.99
56052;BME280;41919;42.648;23.384;2023-02-12T15:04:25;95764.66;;;4.17;58.93
56052;BME280;41919;42.648;23.384;2023-02-12T15:06:56;95825.44;;;4.52;58.94
56052;BME280;41919;42.648;23.384;2023-02-12T15:09:35;95816.72;;;4.34;59.34
56052;BME280;41919;42.648;23.384;2023-02-12T15:12:22;95768.00;;;3.79;59.68
56052;BME280;41919;42.648;23.384;2023-02-12T15:15:46;95839.28;;;4.22;59.86
56052;BME280;41919;42.648;23.384;2023-02-12T15:18:11;95845.19;;;4.24;66.27
56052;BME280;41919;42.648;23.384;2023-02-12T15:20:49;95845.13;;;4.14;63.64
56052;BME280;41919;42.648;23.384;2023-02-12T15:23:36;95857.81;;;4.17;65.89
56052;BME280;41919;42.648;23.384;2023-02-12T15:26:04;95811.69;;;3.82;61.34
56052;BME280;41919;42.648;23.384;2023-02-12T15:28:32;95787.97;;;3.67;60.94
56052;BME280;41919;42.648;23.384;2023-02-12T15:31:01;95853.41;;;4.08;60.52
56052;BME280;41919;42.648;23.384;2023-02-12T15:33:30;95812.75;;;3.79;60.60
56052;BME280;41919;42.648;23.384;2023-02-12T15:35:57;95817.53;;;3.74;60.61
56052;BME280;41919;42.648;23.384;2023-02-12T15:38:35;95803.97;;;3.51;61.45
56052;BME280;41919;42.648;23.384;2023-02-12T15:41:02;95896.44;;;3.99;61.44
56052;BME280;41919;42.648;23.384;2023-02-12T15:43:31;95894.66;;;4.00;61.50
56052;BME280;41919;42.648;23.384;2023-02-12T15:46:00;95898.75;;;4.02;61.48
56052;BME280;41919;42.648;23.384;2023-02-12T15:48:31;95871.03;;;3.83;61.45
56052;BME280;41919;42.648;23.384;2023-02-12T15:53:50;95894.25;;;3.73;62.19
56052;BME280;41919;42.648;23.384;2023-02-12T15:56:19;95888.72;;;3.78;62.19
56052;BME280;41919;42.648;23.384;2023-02-12T15:58:53;95839.25;;;3.41;62.67
56052;BME280;41919;42.648;23.384;2023-02-12T16:01:22;95908.88;;;3.84;62.57
56052;BME280;41919;42.648;23.384;2023-02-12T16:03:51;95824.84;;;3.38;62.38
56052;BME280;41919;42.648;23.384;2023-02-12T16:06:18;95915.59;;;3.97;62.14
56052;BME280;41919;42.648;23.384;2023-02-12T16:09:03;95929.91;;;4.01;62.31
56052;BME280;41919;42.648;23.384;2023-02-12T16:11:31;95909.41;;;3.78;62.45
56052;BME280;41919;42.648;23.384;2023-02-12T16:14:03;95938.63;;;4.00;62.41
56052;BME280;41919;42.648;23.384;2023-02-12T16:16:59;95938.19;;;3.95;62.59